KTOA/TOA METAR and TAF weather

Enter ICAO airport designator
Station Type Date Time Source
KTOA METAR 2019/06/19 02:53 UTC NOAA

KTOA 190253Z 24006KT 10SM SCT014 17/14 A2997 RMK LAST


Station Type Date Time Source
KTOA Decoded METAR 2019/06/19 02:53 UTC NOAA

Torrance, Zamperini Field Airport, CA, United States (KTOA) 33-48N 118-20W
Jun 18, 2019 - 10:53 PM EDT / 2019.06.19 0253 UTC
Wind: from the WSW (240 degrees) at 7 MPH (6 KT):0
Visibility: 10 mile(s):0
Sky conditions: partly cloudy
Temperature: 62 F (17 C)
Dew Point: 57 F (14 C)
Relative Humidity: 82%
Pressure (altimeter): 29.97 in. Hg (1014 hPa)
ob: KTOA 190253Z 24006KT 10SM SCT014 17/14 A2997 RMK LAST
cycle: 3

Station Type Date Time Source
KTOA TAF UTC NOAA

Error!

Example: see airport list